Strona główna
METAR-TAF:

METAR-TAF

Lotnisko :

Port lotniczy Czyta

Czyta, Rosja

Szerokość geograficzna: 52-05N, Długość geograficzna: 113-29E, wysokość: 685 m

Aktualna obserwacja pogody

Raport powstał 26 minut temu, godzina 14:00 UTC
Wiatr 6 kt od zachód
Temperatura 14°C
Wilgotność 72%
Ciśnienie 1009 hPa
Widzialność 10 km lub więcej

METAR: UIAA 191400Z AUTO 28003MPS 9999 NCD 14/09 Q1009 RMK QFE699/0932

czas: 23:26 (14:26 UTC)

Prognoza

Raport powstał 3 godziny i 26 minut temu, godzina 11:00 UTC
Prognoza ważna od 19 godzina 12 UTC do 20 godzina 12 UTC
Wiatr 6 kt od południowo-południowy zachód
Widzialność 10 km lub więcej

TAF: UIAA 191100Z 1912/2012 20003MPS 9999 NSC

Obserwacja i prognoza pogody dla ponad 4000 lotnisk (raport METAR i TAF).

Dostępne stacje oznaczono żółtymi i czerwonymi punktami na mapie.

Najedź kursorem aby zobaczyć nazwę stacji.

Kliknij aby zobaczyć obserwacje i prognozy pogody.

Aby zmienić mapę: kliknij na zielony przycisk z czarnym krzyżykiem, aby powiększyć; na zielony przycisk z myślnikiem, aby pomniejszyć; na zielone strzałki, aby przejść do map sąsiednich.


METAR-TAF: